Santa Maria Pub/Capt G Allan Hancock Field
KSMX : rendu visible

Aérodrome :











RETROUVEZ-NOUS SUR...

 
LOGIN :

S'inscrire | Disclaimer

   EN    FR    IT 

 









Légende :    VFR   VFR Marginal   IFR   IFR Intensif   IFR Très Intensif
Visi : 
Plafond : 
>= 8 km
>= 3000ft
5 à 8 km
1000 à 3000 ft
1500m à 5 km
500 à 1000 ft
800 à 1500m
200 à 500 ft
< 800m
< 200 ft
Symboles :   Orages  Brouillard  Fortes neiges  Fortes précipitations  Vent > 20 kt






- Altitude de l'aérodrome : 261 ft
- Code IATA : SMX


KSMX - Santa Maria Pub/Capt G Allan Hancock Field

DERNIER METAR :
  • 310351Z 32006KT 10SM BKN020 16/12 A2999 RMK AO2 SLP155 T01560122

METARs EXPIRÉS :
  • 310251Z 30004KT 10SM SCT025 SCT032 17/12 A2997 RMK AO2 SLP151 T01670117 53003
  • 310151Z 25005KT 10SM BKN021 BKN027 18/12 A2997 RMK AO2 SLP149 T01780117

TAF KSMX
Valide du 31 à 00h jusqu'au 01 à 00h UTC


302335Z 3100/3124 25012G18KT P6SM SCT030 BKN060
FM310200 30006KT P6SM BKN025
FM310400 VRB03KT P6SM OVC015
FM311900 31013KT P6SM BKN150
FIR KZLA / Amérique du Nord



MET'MAP, la Météo Aéronautique d'un coup d'oeil ! - Copyright ORBIFLY Décembre 2007 - Disclaimer

ORBIFLY MET'MAP TEAM :

Programmation & Développement : Alexandra Zaïnal
Sur une idée originale de : Baudouin d'Aumeries
Assistance à la programmation : Marc-Olivier Méhu
Soutien technique & logistique : Manuel Goepfert

Contact : metmap@orbifly.com




SOURCES & CREDITS :

   NOAA       Earth
Advisory